createdAt,value
2022-08-23T00:02:22.961Z,48.64
2022-08-23T00:05:03.550Z,48.51
2022-08-23T00:07:40.136Z,48.12
2022-08-23T00:10:16.544Z,47.98
2022-08-23T00:12:47.018Z,48.68
2022-08-23T00:15:20.277Z,48.60
2022-08-23T00:17:50.469Z,48.71
2022-08-23T00:20:22.393Z,48.97
2022-08-23T00:22:52.073Z,48.50
2022-08-23T00:25:24.876Z,48.78
2022-08-23T00:27:55.805Z,48.62
2022-08-23T00:30:25.992Z,48.79
2022-08-23T00:32:58.079Z,49.03
2022-08-23T00:35:28.170Z,48.35
2022-08-23T00:38:31.907Z,48.85
2022-08-23T00:40:54.967Z,48.55
2022-08-23T00:43:42.857Z,48.22
2022-08-23T00:46:35.194Z,48.25
2022-08-23T00:49:09.954Z,48.09
2022-08-23T00:51:53.121Z,48.49
2022-08-23T00:54:24.894Z,49.44
2022-08-23T00:56:58.617Z,49.37
2022-08-23T00:59:29.116Z,48.64
2022-08-23T01:01:59.758Z,48.82
2022-08-23T01:04:32.791Z,48.55
2022-08-23T01:07:07.145Z,49.07
2022-08-23T01:09:36.881Z,49.26
2022-08-23T01:12:15.188Z,48.73
2022-08-23T01:14:50.560Z,48.76
2022-08-23T01:17:25.326Z,48.78
2022-08-23T01:19:57.742Z,49.07
2022-08-23T01:22:31.294Z,49.62
2022-08-23T01:25:07.398Z,48.95
2022-08-23T01:27:42.193Z,49.10
2022-08-23T01:30:20.626Z,49.10
2022-08-23T01:32:53.424Z,50.27
2022-08-23T01:38:17.506Z,50.35
2022-08-23T01:40:51.546Z,50.17
2022-08-23T01:43:23.313Z,50.61
2022-08-23T01:45:56.437Z,50.83
2022-08-23T01:48:27.643Z,51.32
2022-08-23T01:50:58.601Z,51.47
2022-08-23T01:53:28.546Z,50.96
2022-08-23T01:56:03.288Z,50.96
2022-08-23T01:58:36.069Z,51.67
2022-08-23T02:01:06.007Z,51.35
2022-08-23T02:03:38.012Z,50.85
2022-08-23T02:06:09.013Z,50.76
2022-08-23T02:08:52.483Z,50.26
2022-08-23T02:11:28.122Z,50.11
2022-08-23T02:14:00.989Z,50.25
2022-08-23T02:16:39.556Z,49.05
2022-08-23T02:19:14.617Z,49.96
2022-08-23T02:21:45.910Z,49.73
2022-08-23T02:24:18.201Z,50.14
2022-08-23T02:26:56.853Z,50.18
2022-08-23T02:29:29.862Z,49.83
2022-08-23T02:32:02.320Z,49.67
2022-08-23T02:34:38.525Z,49.84
2022-08-23T02:37:09.382Z,48.95
2022-08-23T02:39:39.429Z,49.32
2022-08-23T02:42:14.644Z,48.92
2022-08-23T02:44:46.522Z,48.96
2022-08-23T02:47:17.571Z,48.43
2022-08-23T02:49:55.129Z,48.48
2022-08-23T02:52:24.938Z,49.38
2022-08-23T02:54:58.072Z,49.42
2022-08-23T02:57:31.571Z,50.10
2022-08-23T03:00:02.781Z,50.67
2022-08-23T03:02:33.237Z,50.82
2022-08-23T03:05:03.593Z,51.81
2022-08-23T03:07:33.842Z,51.43
2022-08-23T03:10:05.089Z,52.16
2022-08-23T03:12:40.282Z,51.80
2022-08-23T03:15:11.870Z,51.79
2022-08-23T03:17:41.890Z,52.17
2022-08-23T03:20:14.168Z,52.08
2022-08-23T03:22:54.338Z,52.22
2022-08-23T03:25:26.700Z,52.57
2022-08-23T03:28:16.992Z,52.22
2022-08-23T03:30:48.112Z,52.25
2022-08-23T03:33:18.143Z,51.58
2022-08-23T03:35:49.342Z,51.75
2022-08-23T03:38:21.381Z,51.70
2022-08-23T03:40:54.032Z,51.95
2022-08-23T03:43:27.085Z,51.63
2022-08-23T03:45:56.954Z,51.64
2022-08-23T03:48:27.562Z,51.51
2022-08-23T03:50:57.258Z,51.13
2022-08-23T03:53:27.808Z,51.11
2022-08-23T03:55:58.721Z,52.20
2022-08-23T03:58:31.007Z,52.16
2022-08-23T04:01:00.681Z,53.02
2022-08-23T04:03:30.467Z,53.47
2022-08-23T04:06:08.206Z,53.39
2022-08-23T04:08:38.079Z,53.60
2022-08-23T04:11:09.235Z,53.97
2022-08-23T04:13:43.716Z,54.58
2022-08-23T04:16:14.636Z,55.42
2022-08-23T04:18:44.572Z,55.78
2022-08-23T04:21:25.073Z,56.10
2022-08-23T04:23:55.209Z,56.21
2022-08-23T04:26:29.697Z,56.93
2022-08-23T04:29:02.470Z,57.11
2022-08-23T04:31:34.680Z,57.38
2022-08-23T04:34:05.463Z,57.53
2022-08-23T04:36:46.021Z,57.51
2022-08-23T04:39:22.340Z,56.99
2022-08-23T04:42:04.689Z,56.69
2022-08-23T04:44:37.092Z,56.40
2022-08-23T04:47:07.529Z,57.45
2022-08-23T04:49:37.421Z,56.80
2022-08-23T04:52:07.204Z,57.16
2022-08-23T04:54:36.987Z,57.55
2022-08-23T04:57:22.751Z,57.12
2022-08-23T04:59:55.052Z,56.71
2022-08-23T05:02:25.258Z,56.53
2022-08-23T05:04:55.808Z,56.20
2022-08-23T05:07:41.477Z,55.77
2022-08-23T05:10:18.204Z,55.97
2022-08-23T05:12:51.859Z,56.42
2022-08-23T05:15:26.307Z,56.50
2022-08-23T05:18:01.825Z,56.84
2022-08-23T05:20:32.612Z,56.76
2022-08-23T05:23:03.441Z,56.95
2022-08-23T05:25:54.249Z,57.16
2022-08-23T05:28:31.116Z,56.72
2022-08-23T05:31:11.900Z,56.18
2022-08-23T05:34:02.445Z,55.23
2022-08-23T05:36:56.034Z,54.56
2022-08-23T05:39:36.335Z,54.73
2022-08-23T05:42:14.011Z,54.98
2022-08-23T05:44:45.644Z,54.95
2022-08-23T05:47:23.638Z,54.74
2022-08-23T05:50:13.905Z,54.20
2022-08-23T05:52:46.755Z,54.31
2022-08-23T05:55:19.244Z,54.70
2022-08-23T05:57:59.265Z,54.75
2022-08-23T06:00:37.415Z,54.20
2022-08-23T06:03:11.765Z,54.19
2022-08-23T06:05:43.534Z,53.89
2022-08-23T06:08:14.552Z,53.98
2022-08-23T06:10:44.387Z,53.79
2022-08-23T06:13:23.669Z,53.62
2022-08-23T06:15:53.631Z,53.98
2022-08-23T06:18:26.160Z,54.00
2022-08-23T06:21:04.035Z,53.68
2022-08-23T06:23:47.169Z,52.29
2022-08-23T06:26:21.501Z,51.63
2022-08-23T06:28:55.191Z,51.85
2022-08-23T06:31:40.043Z,51.93
2022-08-23T06:34:21.282Z,51.16
2022-08-23T06:37:12.005Z,51.68
2022-08-23T06:40:00.596Z,51.38
2022-08-23T06:42:49.708Z,50.10
2022-08-23T06:45:33.935Z,47.89
2022-08-23T06:48:07.184Z,47.78
2022-08-23T06:50:43.805Z,47.73
2022-08-23T06:53:34.064Z,46.59
2022-08-23T06:56:25.340Z,46.26
2022-08-23T06:59:07.391Z,46.30
2022-08-23T07:02:05.353Z,46.10
2022-08-23T07:04:58.366Z,47.59
2022-08-23T07:07:44.518Z,46.32
2022-08-23T07:10:16.708Z,46.83
2022-08-23T07:12:46.973Z,45.66
2022-08-23T07:15:17.111Z,44.92
2022-08-23T07:17:48.515Z,44.85
2022-08-23T07:20:18.311Z,45.66
2022-08-23T07:22:50.835Z,46.67
2022-08-23T07:25:20.812Z,45.90
2022-08-23T07:27:55.254Z,45.66
2022-08-23T07:30:25.402Z,45.68
2022-08-23T07:32:56.396Z,46.70
2022-08-23T07:35:31.141Z,46.50
2022-08-23T07:38:04.756Z,46.46
2022-08-23T07:40:38.981Z,46.00
2022-08-23T07:43:10.344Z,46.00
2022-08-23T07:45:43.371Z,45.98
2022-08-23T07:48:20.443Z,46.43
2022-08-23T07:51:15.349Z,46.18
2022-08-23T07:53:48.184Z,45.87
2022-08-23T07:56:22.146Z,45.01
2022-08-23T07:59:23.850Z,45.98
2022-08-23T08:02:12.191Z,46.82
2022-08-23T08:04:43.184Z,47.20
2022-08-23T08:07:21.358Z,46.49
2022-08-23T08:10:01.589Z,45.90
2022-08-23T08:12:32.985Z,44.72
2022-08-23T08:15:10.759Z,44.50
2022-08-23T08:17:42.889Z,44.51
2022-08-23T08:20:13.186Z,44.99
2022-08-23T08:23:01.221Z,44.76
2022-08-23T08:26:08.930Z,44.34
2022-08-23T08:28:40.587Z,44.18
2022-08-23T08:31:11.269Z,43.46
2022-08-23T08:33:41.689Z,43.68
2022-08-23T08:36:31.991Z,42.59
2022-08-23T08:39:01.984Z,43.27
2022-08-23T08:41:46.245Z,42.63
2022-08-23T08:44:27.357Z,42.12
2022-08-23T08:46:59.404Z,42.85
2022-08-23T08:49:40.941Z,42.79
2022-08-23T08:52:19.646Z,43.87
2022-08-23T08:54:53.371Z,43.39
2022-08-23T08:57:28.396Z,42.48
2022-08-23T09:00:03.440Z,42.48
2022-08-23T09:02:37.433Z,42.48
2022-08-23T09:05:15.322Z,41.96
2022-08-23T09:08:01.272Z,41.63
2022-08-23T09:10:58.132Z,42.19
2022-08-23T09:13:56.604Z,41.49
2022-08-23T09:16:37.995Z,41.53
2022-08-23T09:19:08.041Z,41.62
2022-08-23T09:21:46.170Z,40.54
2022-08-23T09:24:16.629Z,40.38
2022-08-23T09:27:07.019Z,39.77
2022-08-23T09:29:41.862Z,39.45
2022-08-23T09:32:29.949Z,39.26
2022-08-23T09:35:13.336Z,39.57
2022-08-23T09:38:00.739Z,39.08
2022-08-23T09:40:41.059Z,38.37
2022-08-23T09:43:15.875Z,38.86
2022-08-23T09:46:01.995Z,38.35
2022-08-23T09:48:40.025Z,38.99
2022-08-23T09:51:21.212Z,38.53
2022-08-23T09:53:55.211Z,37.70
2022-08-23T09:56:27.897Z,38.48
2022-08-23T09:58:57.743Z,38.20
2022-08-23T10:01:42.644Z,38.31
2022-08-23T10:04:18.783Z,37.93
2022-08-23T10:06:48.851Z,37.97
2022-08-23T10:09:26.973Z,37.98
2022-08-23T10:11:59.208Z,37.47
2022-08-23T10:14:33.067Z,36.43
2022-08-23T10:17:17.398Z,36.60
2022-08-23T10:19:57.341Z,37.03
2022-08-23T10:22:29.665Z,37.01
2022-08-23T10:25:29.293Z,36.69
2022-08-23T10:28:22.063Z,36.69
2022-08-23T10:31:00.087Z,37.00
2022-08-23T10:33:45.554Z,37.43
2022-08-23T10:36:21.233Z,37.40
2022-08-23T10:38:56.934Z,36.15
2022-08-23T10:41:50.323Z,35.81
2022-08-23T10:44:27.353Z,37.19
2022-08-23T10:47:07.549Z,36.82
2022-08-23T10:49:42.383Z,36.29
2022-08-23T10:52:19.963Z,35.33
2022-08-23T10:55:06.405Z,36.79
2022-08-23T10:57:40.764Z,36.55
2022-08-23T11:00:16.040Z,36.26
2022-08-23T11:02:56.258Z,35.24
2022-08-23T11:05:35.936Z,36.23
2022-08-23T11:08:32.597Z,37.86
2022-08-23T11:11:04.287Z,36.46
2022-08-23T11:13:37.039Z,36.14
2022-08-23T11:16:15.944Z,36.06
2022-08-23T11:18:49.742Z,36.86
2022-08-23T11:21:51.119Z,35.48
2022-08-23T11:24:51.971Z,35.09
2022-08-23T11:27:42.349Z,35.49
2022-08-23T11:30:50.065Z,35.05
2022-08-23T11:33:28.814Z,34.97
2022-08-23T11:36:21.821Z,35.03
2022-08-23T11:39:15.770Z,35.02
2022-08-23T11:42:09.159Z,35.22
2022-08-23T11:44:49.726Z,35.65
2022-08-23T11:47:30.569Z,34.98
2022-08-23T11:50:19.974Z,36.02
2022-08-23T11:53:01.661Z,34.84
2022-08-23T11:56:02.603Z,34.65
2022-08-23T11:58:48.499Z,34.31
2022-08-23T12:01:19.256Z,34.01
2022-08-23T12:03:59.963Z,33.27
2022-08-23T12:06:50.460Z,33.93
2022-08-23T12:09:56.355Z,33.67
2022-08-23T12:12:41.750Z,33.53
2022-08-23T12:15:15.898Z,33.91
2022-08-23T12:18:13.964Z,33.19
2022-08-23T12:20:48.310Z,32.94
2022-08-23T12:23:22.766Z,34.01
2022-08-23T12:26:06.305Z,33.06
2022-08-23T12:28:45.727Z,33.39
2022-08-23T12:31:24.729Z,32.64
2022-08-23T12:34:18.267Z,34.29
2022-08-23T12:36:54.329Z,33.69
2022-08-23T12:39:28.821Z,32.91
2022-08-23T12:42:09.138Z,33.90
2022-08-23T12:44:41.329Z,32.73
2022-08-23T12:47:20.231Z,32.45
2022-08-23T12:50:00.390Z,32.05
2022-08-23T12:52:33.315Z,32.80
2022-08-23T12:55:03.177Z,32.58
2022-08-23T12:57:36.510Z,32.18
2022-08-23T13:00:20.706Z,32.19
2022-08-23T13:02:55.482Z,32.19
2022-08-23T13:05:39.645Z,32.58
2022-08-23T13:08:12.478Z,32.83
2022-08-23T13:10:46.232Z,32.53
2022-08-23T13:13:19.424Z,32.89
2022-08-23T13:15:55.672Z,32.42
2022-08-23T13:18:35.556Z,34.10
2022-08-23T13:21:39.620Z,32.40
2022-08-23T13:24:37.904Z,31.94
2022-08-23T13:27:24.031Z,31.65
2022-08-23T13:29:57.464Z,31.87
2022-08-23T13:32:39.258Z,32.10
2022-08-23T13:35:29.447Z,32.08
2022-08-23T13:38:02.274Z,30.98
2022-08-23T13:40:34.662Z,33.33
2022-08-23T13:43:10.157Z,31.92
2022-08-23T13:45:48.264Z,32.93
2022-08-23T13:48:24.767Z,32.44
2022-08-23T13:50:54.763Z,32.33
2022-08-23T13:53:24.652Z,32.41
2022-08-23T13:55:58.603Z,31.71
2022-08-23T13:58:31.393Z,31.32
2022-08-23T14:01:02.429Z,31.23
2022-08-23T14:03:35.426Z,32.01
2022-08-23T14:06:04.976Z,32.88
2022-08-23T14:08:34.741Z,32.50
2022-08-23T14:11:04.412Z,33.22
2022-08-23T14:13:36.784Z,32.26
2022-08-23T14:19:54.606Z,31.27
2022-08-23T14:21:53.331Z,32.14
2022-08-23T14:24:23.666Z,32.60
2022-08-23T14:26:53.356Z,32.07
2022-08-23T14:29:23.854Z,32.17
2022-08-23T14:31:54.506Z,31.31
2022-08-23T14:34:26.838Z,31.38
2022-08-23T14:39:46.258Z,31.76
2022-08-23T14:42:18.875Z,30.72
2022-08-23T14:44:48.469Z,31.50
2022-08-23T14:47:18.240Z,31.09
2022-08-23T14:49:53.678Z,30.75
2022-08-23T14:52:24.844Z,30.84
2022-08-23T14:54:54.499Z,31.24
2022-08-23T14:57:24.153Z,31.02
2022-08-23T14:59:53.789Z,31.76
2022-08-23T15:02:27.227Z,31.77
2022-08-23T15:04:59.369Z,30.97
2022-08-23T15:07:28.963Z,30.81
2022-08-23T15:09:58.619Z,30.97
2022-08-23T15:15:21.924Z,30.33
2022-08-23T15:17:54.580Z,31.51
2022-08-23T15:20:30.050Z,30.83
2022-08-23T15:23:00.420Z,31.05
2022-08-23T15:25:33.390Z,30.65
2022-08-23T15:28:03.754Z,31.46
2022-08-23T15:30:35.275Z,31.39
2022-08-23T15:33:05.173Z,31.62
2022-08-23T15:35:42.628Z,31.00
2022-08-23T15:38:15.572Z,31.08
2022-08-23T15:40:45.640Z,32.04
2022-08-23T15:43:15.942Z,32.50
2022-08-23T15:45:45.862Z,32.32
2022-08-23T15:48:19.317Z,32.51
2022-08-23T15:50:52.089Z,30.57
2022-08-23T15:53:22.140Z,31.04
2022-08-23T15:55:52.212Z,31.58
2022-08-23T15:58:25.839Z,31.90
2022-08-23T16:00:56.822Z,32.86
2022-08-23T16:03:26.538Z,32.77
2022-08-23T16:05:58.847Z,32.49
2022-08-23T16:08:32.689Z,32.52
2022-08-23T16:11:05.066Z,33.02
2022-08-23T16:13:34.770Z,32.62
2022-08-23T16:16:06.002Z,32.28
2022-08-23T16:18:35.650Z,32.20
2022-08-23T16:21:08.168Z,32.86
2022-08-23T16:23:39.871Z,32.64
2022-08-23T16:26:11.089Z,33.29
2022-08-23T16:28:43.983Z,33.56
2022-08-23T16:31:14.466Z,33.22
2022-08-23T16:33:44.443Z,33.41
2022-08-23T16:36:18.269Z,33.58
2022-08-23T16:38:48.115Z,33.80
2022-08-23T16:41:18.068Z,33.59
2022-08-23T16:43:51.245Z,33.37
2022-08-23T16:46:22.994Z,33.93
2022-08-23T16:48:52.815Z,34.07
2022-08-23T16:51:25.542Z,33.92
2022-08-23T16:54:02.984Z,33.91
2022-08-23T16:56:33.512Z,33.51
2022-08-23T16:59:03.645Z,33.90
2022-08-23T17:01:34.537Z,33.81
2022-08-23T17:04:04.212Z,34.04
2022-08-23T17:06:36.355Z,33.90
2022-08-23T17:09:06.731Z,33.91
2022-08-23T17:11:36.942Z,34.05
2022-08-23T17:14:07.446Z,34.67
2022-08-23T17:16:37.223Z,34.00
2022-08-23T17:19:07.519Z,34.28
2022-08-23T17:21:40.093Z,34.31
2022-08-23T17:24:10.363Z,34.45
2022-08-23T17:26:40.367Z,34.67
2022-08-23T17:29:12.330Z,34.91
2022-08-23T17:31:42.232Z,35.06
2022-08-23T17:34:12.014Z,34.84
2022-08-23T17:36:47.832Z,34.49
2022-08-23T17:39:19.800Z,34.93
2022-08-23T17:41:49.587Z,34.71
2022-08-23T17:44:20.449Z,35.06
2022-08-23T17:46:50.882Z,35.17
2022-08-23T17:49:22.871Z,34.85
2022-08-23T17:51:55.057Z,35.10
2022-08-23T17:54:25.230Z,35.09
2022-08-23T17:56:54.872Z,35.25
2022-08-23T17:59:25.932Z,35.77
2022-08-23T18:01:55.652Z,35.97
2022-08-23T18:04:25.421Z,35.71
2022-08-23T18:06:58.441Z,35.51
2022-08-23T18:09:28.381Z,35.49
2022-08-23T18:11:58.099Z,35.38
2022-08-23T18:14:28.191Z,35.77
2022-08-23T18:16:58.733Z,35.80
2022-08-23T18:19:28.515Z,35.77
2022-08-23T18:22:02.460Z,35.72
2022-08-23T18:24:33.353Z,35.70
2022-08-23T18:27:20.837Z,35.76
2022-08-23T18:29:52.066Z,35.82
2022-08-23T18:32:23.159Z,35.96
2022-08-23T18:34:53.451Z,36.09
2022-08-23T18:37:25.778Z,35.95
2022-08-23T18:39:55.371Z,36.09
2022-08-23T18:42:25.059Z,36.09
2022-08-23T18:44:54.711Z,36.15
2022-08-23T18:47:24.293Z,36.14
2022-08-23T18:49:53.886Z,36.27
2022-08-23T18:52:27.548Z,36.39
2022-08-23T18:55:02.822Z,36.71
2022-08-23T18:57:33.222Z,36.59
2022-08-23T19:00:02.934Z,36.63
2022-08-23T19:02:32.693Z,36.62
2022-08-23T19:05:03.074Z,36.53
2022-08-23T19:07:35.209Z,36.98
2022-08-23T19:10:06.255Z,37.02
2022-08-23T19:12:35.999Z,37.18
2022-08-23T19:15:06.163Z,37.08
2022-08-23T19:17:36.791Z,37.04
2022-08-23T19:20:09.603Z,37.22
2022-08-23T19:22:43.287Z,35.27
2022-08-23T19:25:13.166Z,36.34
2022-08-23T19:27:43.256Z,36.96
2022-08-23T19:30:16.051Z,37.67
2022-08-23T19:32:47.731Z,37.65
2022-08-23T19:35:19.287Z,37.71
2022-08-23T19:37:51.546Z,37.79
2022-08-23T19:40:21.424Z,38.12
2022-08-23T19:42:53.177Z,38.57
2022-08-23T19:45:26.006Z,38.55
2022-08-23T19:48:02.841Z,38.92
2022-08-23T19:50:32.579Z,38.86
2022-08-23T19:53:06.988Z,38.60
2022-08-23T19:55:37.794Z,38.50
2022-08-23T19:58:07.394Z,38.59
2022-08-23T20:00:43.866Z,38.47
2022-08-23T20:03:14.065Z,38.64
2022-08-23T20:05:43.879Z,38.86
2022-08-23T20:08:16.070Z,38.80
2022-08-23T20:10:46.002Z,39.15
2022-08-23T20:13:15.999Z,38.65
2022-08-23T20:15:45.593Z,39.46
2022-08-23T20:18:15.194Z,38.88
2022-08-23T20:20:45.010Z,39.34
2022-08-23T20:23:31.639Z,39.40
2022-08-23T20:26:01.257Z,39.69
2022-08-23T20:28:31.641Z,40.07
2022-08-23T20:31:08.820Z,39.87
2022-08-23T20:33:38.450Z,39.70
2022-08-23T20:36:08.178Z,40.09
2022-08-23T20:38:40.498Z,39.82
2022-08-23T20:41:11.943Z,40.09
2022-08-23T20:43:50.179Z,40.15
2022-08-23T20:46:20.002Z,39.81
2022-08-23T20:48:51.487Z,40.04
2022-08-23T20:51:22.327Z,40.18
2022-08-23T20:53:54.863Z,40.56
2022-08-23T20:56:28.204Z,40.22
2022-08-23T20:58:58.932Z,40.75
2022-08-23T21:01:28.701Z,40.33
2022-08-23T21:04:00.156Z,40.76
2022-08-23T21:06:34.006Z,41.07
2022-08-23T21:09:08.097Z,40.63
2022-08-23T21:11:37.694Z,40.84
2022-08-23T21:14:08.373Z,40.79
2022-08-23T21:16:39.269Z,41.02
2022-08-23T21:19:09.614Z,41.14
2022-08-23T21:21:41.121Z,41.06
2022-08-23T21:24:14.113Z,41.41
2022-08-23T21:26:44.946Z,39.66
2022-08-23T21:29:14.637Z,40.33
2022-08-23T21:31:44.189Z,41.30
2022-08-23T21:34:14.524Z,41.58
2022-08-23T21:36:45.134Z,41.76
2022-08-23T21:39:17.320Z,42.55
2022-08-23T21:41:48.486Z,42.71
2022-08-23T21:44:21.594Z,42.28
2022-08-23T21:46:53.218Z,42.76
2022-08-23T21:49:23.561Z,42.34
2022-08-23T21:51:54.407Z,42.37
2022-08-23T21:54:26.794Z,42.23
2022-08-23T21:56:56.348Z,42.28
2022-08-23T21:59:26.862Z,42.44
2022-08-23T22:01:56.597Z,42.31
2022-08-23T22:04:26.385Z,43.16
2022-08-23T22:06:57.239Z,43.10
2022-08-23T22:09:32.599Z,43.32
2022-08-23T22:12:03.535Z,43.64
2022-08-23T22:14:33.985Z,43.88
2022-08-23T22:17:03.746Z,43.78
2022-08-23T22:19:33.375Z,44.03
2022-08-23T22:22:02.971Z,45.45
2022-08-23T22:24:35.175Z,43.01
2022-08-23T22:27:04.802Z,44.19
2022-08-23T22:29:34.683Z,45.88
2022-08-23T22:32:04.731Z,46.01
2022-08-23T22:34:34.294Z,46.61
2022-08-23T22:37:04.002Z,46.61
2022-08-23T22:39:36.482Z,46.12
2022-08-23T22:42:06.301Z,46.26
2022-08-23T22:44:41.737Z,46.32
2022-08-23T22:47:11.551Z,46.63
2022-08-23T22:49:41.442Z,46.99
2022-08-23T22:52:12.555Z,47.02
2022-08-23T22:54:44.696Z,47.12
2022-08-23T22:57:14.280Z,46.62
2022-08-23T22:59:44.015Z,47.06
2022-08-23T23:02:13.821Z,46.98
2022-08-23T23:04:45.666Z,46.76
2022-08-23T23:07:35.789Z,47.11
2022-08-23T23:10:08.869Z,47.67
2022-08-23T23:12:38.465Z,48.03
2022-08-23T23:15:08.867Z,47.32
2022-08-23T23:17:38.583Z,47.42
2022-08-23T23:20:21.717Z,47.71
2022-08-23T23:22:52.345Z,48.20
2022-08-23T23:25:24.821Z,48.33
2022-08-23T23:27:54.437Z,48.51
2022-08-23T23:30:24.060Z,48.91
2022-08-23T23:32:53.791Z,48.88
2022-08-23T23:35:23.680Z,48.02
2022-08-23T23:37:53.380Z,48.54
2022-08-23T23:40:28.226Z,48.52
2022-08-23T23:42:58.149Z,49.19
2022-08-23T23:45:27.786Z,49.11
2022-08-23T23:47:58.064Z,49.95
2022-08-23T23:50:28.293Z,49.70
2022-08-23T23:52:58.328Z,50.09
2022-08-23T23:55:31.551Z,50.06
2022-08-23T23:58:01.713Z,50.55
